createdAt,value
2023-03-26T00:01:41.384Z,99241.94
2023-03-26T00:04:09.593Z,99238.27
2023-03-26T00:06:40.063Z,99237.14
2023-03-26T00:09:13.269Z,99236.28
2023-03-26T00:11:43.146Z,99238.88
2023-03-26T00:14:13.998Z,99239.39
2023-03-26T00:16:42.654Z,99243.45
2023-03-26T00:19:11.890Z,99242.34
2023-03-26T00:21:41.371Z,99245.09
2023-03-26T00:24:17.472Z,99252.42
2023-03-26T00:26:53.039Z,99249.66
2023-03-26T00:29:23.111Z,99247.32
2023-03-26T00:31:51.444Z,99237.67
2023-03-26T00:34:19.417Z,99239.91
2023-03-26T00:36:47.580Z,99231.17
2023-03-26T00:39:17.849Z,99225.13
2023-03-26T00:41:46.231Z,99217.99
2023-03-26T00:44:14.206Z,99221.24
2023-03-26T00:46:42.644Z,99220.14
2023-03-26T00:49:14.932Z,99219.50
2023-03-26T00:51:44.675Z,99216.36
2023-03-26T00:54:13.288Z,99215.05
2023-03-26T00:56:41.888Z,99210.09
2023-03-26T00:59:11.001Z,99207.23
2023-03-26T01:01:39.802Z,99202.95
2023-03-26T01:04:34.704Z,99205.58
2023-03-26T01:07:11.573Z,99200.80
2023-03-26T01:09:45.020Z,99199.20
2023-03-26T01:12:17.143Z,99198.91
2023-03-26T01:14:51.025Z,99197.23
2023-03-26T01:17:20.135Z,99195.02
2023-03-26T01:20:20.133Z,99198.14
2023-03-26T01:22:54.656Z,99201.88
2023-03-26T01:25:28.662Z,99202.42
2023-03-26T01:27:57.750Z,99201.18
2023-03-26T01:30:49.535Z,99199.04
2023-03-26T01:33:43.891Z,99199.80
2023-03-26T01:36:30.023Z,99198.30
2023-03-26T01:39:30.889Z,99199.11
2023-03-26T01:42:10.980Z,99199.41
2023-03-26T01:44:56.862Z,99186.27
2023-03-26T01:47:28.606Z,99201.88
2023-03-26T01:49:56.629Z,99199.37
2023-03-26T01:52:26.213Z,99197.56
2023-03-26T01:54:56.650Z,99193.05
2023-03-26T01:57:51.525Z,99191.83
2023-03-26T02:00:26.124Z,99193.34
2023-03-26T02:03:18.128Z,99190.05
2023-03-26T02:06:11.343Z,99188.55
2023-03-26T02:09:09.045Z,99189.21
2023-03-26T02:11:41.004Z,99185.98
2023-03-26T02:14:09.622Z,99193.20
2023-03-26T02:16:40.423Z,99188.88
2023-03-26T02:19:15.503Z,99185.89
2023-03-26T02:21:43.839Z,99184.99
2023-03-26T02:24:12.058Z,99182.08
2023-03-26T02:26:42.567Z,99183.59
2023-03-26T02:29:20.555Z,99177.42
2023-03-26T02:31:49.643Z,99179.48
2023-03-26T02:34:17.824Z,99176.73
2023-03-26T02:36:53.319Z,99176.73
2023-03-26T02:39:26.225Z,99177.14
2023-03-26T02:42:03.897Z,99177.27
2023-03-26T02:44:40.152Z,99174.19
2023-03-26T02:47:20.318Z,99171.55
2023-03-26T02:49:54.368Z,99166.29
2023-03-26T02:52:43.075Z,99171.45
2023-03-26T02:55:11.044Z,99169.08
2023-03-26T02:57:41.293Z,99174.42
2023-03-26T03:00:15.957Z,99171.20
2023-03-26T03:02:50.764Z,99169.00
2023-03-26T03:05:45.944Z,99171.53
2023-03-26T03:08:28.262Z,99170.21
2023-03-26T03:11:15.957Z,99169.46
2023-03-26T03:13:46.295Z,99168.07
2023-03-26T03:16:17.903Z,99171.06
2023-03-26T03:18:47.518Z,99168.98
2023-03-26T03:21:15.789Z,99172.00
2023-03-26T03:23:43.762Z,99166.81
2023-03-26T03:26:21.684Z,99169.10
2023-03-26T03:28:56.603Z,99173.91
2023-03-26T03:31:26.549Z,99175.32
2023-03-26T03:33:57.803Z,99176.08
2023-03-26T03:36:28.113Z,99175.63
2023-03-26T03:39:02.926Z,99176.55
2023-03-26T03:41:31.245Z,99178.42
2023-03-26T03:44:01.522Z,99174.67
2023-03-26T03:46:33.073Z,99182.61
2023-03-26T03:49:01.092Z,99177.71
2023-03-26T03:51:35.202Z,99185.28
2023-03-26T03:54:06.064Z,99187.48
2023-03-26T03:56:52.290Z,99184.83
2023-03-26T03:59:33.759Z,99181.85
2023-03-26T04:02:04.846Z,99186.05
2023-03-26T04:04:40.759Z,99180.08
2023-03-26T04:07:12.407Z,99182.25
2023-03-26T04:10:00.376Z,99181.52
2023-03-26T04:12:31.554Z,99185.44
2023-03-26T04:15:05.132Z,99179.66
2023-03-26T04:17:33.737Z,99180.21
2023-03-26T04:20:06.229Z,99180.23
2023-03-26T04:22:36.506Z,99181.48
2023-03-26T04:25:07.601Z,99180.49
2023-03-26T04:27:48.931Z,99181.95
2023-03-26T04:30:24.757Z,99185.61
2023-03-26T04:33:06.474Z,99182.32
2023-03-26T04:35:38.108Z,99182.85
2023-03-26T04:38:09.835Z,99181.79
2023-03-26T04:40:42.371Z,99181.50
2023-03-26T04:43:30.433Z,99181.42
2023-03-26T04:46:18.447Z,99176.33
2023-03-26T04:48:53.098Z,99179.56
2023-03-26T04:51:27.100Z,99179.85
2023-03-26T04:53:59.631Z,99184.54
2023-03-26T04:56:45.859Z,99180.43
2023-03-26T04:59:30.240Z,99181.21
2023-03-26T05:02:00.145Z,99180.06
2023-03-26T05:04:34.006Z,99176.23
2023-03-26T05:07:03.279Z,99178.50
2023-03-26T05:09:36.533Z,99178.95
2023-03-26T05:12:12.575Z,99178.07
2023-03-26T05:14:50.231Z,99180.71
2023-03-26T05:17:24.984Z,99177.07
2023-03-26T05:19:53.089Z,99181.45
2023-03-26T05:22:21.385Z,99186.21
2023-03-26T05:25:09.641Z,99183.67
2023-03-26T05:27:38.623Z,99180.42
2023-03-26T05:30:07.952Z,99184.00
2023-03-26T05:32:43.096Z,99184.83
2023-03-26T05:35:12.579Z,99188.16
2023-03-26T05:37:40.966Z,99186.39
2023-03-26T05:40:11.820Z,99184.62
2023-03-26T05:42:47.837Z,99191.64
2023-03-26T05:45:37.396Z,99196.77
2023-03-26T05:48:31.520Z,99195.55
2023-03-26T05:51:00.325Z,99200.80
2023-03-26T05:53:30.778Z,99206.92
2023-03-26T05:56:17.703Z,99209.97
2023-03-26T05:59:04.501Z,99211.70
2023-03-26T06:01:51.602Z,99210.85
2023-03-26T06:04:42.396Z,99217.35
2023-03-26T06:07:29.322Z,99218.52
2023-03-26T06:11:55.856Z,99225.20
2023-03-26T06:14:23.803Z,99221.34
2023-03-26T06:17:13.875Z,99223.71
2023-03-26T06:20:01.029Z,99224.02
2023-03-26T06:22:39.248Z,99227.63
2023-03-26T06:25:30.784Z,99228.47
2023-03-26T06:28:23.154Z,99230.70
2023-03-26T06:30:52.489Z,99236.91
2023-03-26T06:33:36.865Z,99231.05
2023-03-26T06:36:05.789Z,99238.80
2023-03-26T06:38:34.302Z,99238.90
2023-03-26T06:41:06.195Z,99238.83
2023-03-26T06:43:52.896Z,99238.05
2023-03-26T06:46:39.879Z,99239.15
2023-03-26T06:49:38.099Z,99235.80
2023-03-26T06:52:24.930Z,99240.89
2023-03-26T06:55:08.557Z,99246.66
2023-03-26T06:58:02.210Z,99248.42
2023-03-26T07:00:42.546Z,99240.11
2023-03-26T07:03:42.553Z,99248.36
2023-03-26T07:06:29.197Z,99256.90
2023-03-26T07:09:16.179Z,99258.94
2023-03-26T07:12:19.208Z,99255.48
2023-03-26T07:15:03.493Z,99258.16
2023-03-26T07:18:07.109Z,99258.70
2023-03-26T07:20:37.772Z,99258.98
2023-03-26T07:23:06.809Z,99262.06
2023-03-26T07:25:40.166Z,99268.21
2023-03-26T07:28:36.181Z,99274.05
2023-03-26T07:31:27.415Z,99278.90
2023-03-26T07:34:25.868Z,99279.53
2023-03-26T07:37:37.276Z,99270.23
2023-03-26T07:41:05.692Z,99276.70
2023-03-26T07:44:21.178Z,99274.44
2023-03-26T07:47:34.894Z,99268.98
2023-03-26T07:50:19.903Z,99272.85
2023-03-26T07:53:01.692Z,99267.39
2023-03-26T07:56:25.275Z,99277.71
2023-03-26T07:59:40.059Z,99278.47
2023-03-26T08:03:05.110Z,99277.69
2023-03-26T08:06:19.563Z,99275.73
2023-03-26T08:09:26.613Z,99278.11
2023-03-26T08:12:34.697Z,99275.59
2023-03-26T08:15:26.137Z,99276.36
2023-03-26T08:18:10.721Z,99275.94
2023-03-26T08:20:54.363Z,99279.52
2023-03-26T08:24:18.053Z,99274.25
2023-03-26T08:27:08.575Z,99272.75
2023-03-26T08:30:12.491Z,99270.42
2023-03-26T08:32:41.533Z,99269.10
2023-03-26T08:35:13.568Z,99270.63
2023-03-26T08:37:41.507Z,99270.05
2023-03-26T08:40:12.240Z,99268.95
2023-03-26T08:43:02.292Z,99266.62
2023-03-26T08:45:58.362Z,99265.96
2023-03-26T08:49:03.445Z,99260.35
2023-03-26T08:52:03.980Z,99262.73
2023-03-26T08:55:22.002Z,99270.45
2023-03-26T08:58:33.278Z,99266.99
2023-03-26T09:01:53.349Z,99266.73
2023-03-26T09:04:32.949Z,99261.72
2023-03-26T09:07:27.901Z,99265.77
2023-03-26T09:10:33.642Z,99267.70
2023-03-26T09:13:19.016Z,99266.00
2023-03-26T09:16:12.046Z,99263.73
2023-03-26T09:19:01.304Z,99268.70
2023-03-26T09:22:08.820Z,99262.65
2023-03-26T09:25:42.939Z,99267.34
2023-03-26T09:28:46.040Z,99270.23
2023-03-26T09:31:47.336Z,99271.99
2023-03-26T09:34:42.857Z,99275.66
2023-03-26T09:37:57.186Z,99277.39
2023-03-26T09:40:54.750Z,99275.55
2023-03-26T09:43:45.381Z,99276.15
2023-03-26T09:46:46.718Z,99278.09
2023-03-26T09:50:10.049Z,99275.30
2023-03-26T09:53:09.053Z,99275.06
2023-03-26T09:55:59.561Z,99273.41
2023-03-26T09:59:08.201Z,99264.05
2023-03-26T10:01:54.651Z,99266.68
2023-03-26T10:04:46.189Z,99263.17
2023-03-26T10:07:47.224Z,99267.85
2023-03-26T10:10:44.478Z,99266.73
2023-03-26T10:13:35.677Z,99270.09
2023-03-26T10:16:51.890Z,99270.85
2023-03-26T10:19:43.427Z,99279.46
2023-03-26T10:22:40.496Z,99278.10
2023-03-26T10:25:36.378Z,99285.55
2023-03-26T10:28:28.785Z,99285.05
2023-03-26T10:31:48.027Z,99286.71
2023-03-26T10:34:38.900Z,99278.84
2023-03-26T10:37:18.414Z,99282.40
2023-03-26T10:40:11.336Z,99279.70
2023-03-26T10:43:14.671Z,99280.80
2023-03-26T10:46:24.840Z,99276.90
2023-03-26T10:49:19.287Z,99283.16
2023-03-26T10:51:58.830Z,99277.66
2023-03-26T10:54:56.278Z,99277.58
2023-03-26T10:57:38.081Z,99279.80
2023-03-26T11:00:17.590Z,99287.85
2023-03-26T11:03:20.792Z,99286.08
2023-03-26T11:06:17.226Z,99279.57
2023-03-26T11:09:05.931Z,99280.65
2023-03-26T11:12:25.556Z,99280.62
2023-03-26T11:15:03.793Z,99281.79
2023-03-26T11:17:48.124Z,99276.19
2023-03-26T11:20:29.925Z,99276.77
2023-03-26T11:23:36.860Z,99274.19
2023-03-26T11:26:14.635Z,99266.70
2023-03-26T11:29:04.054Z,99268.15
2023-03-26T11:32:03.117Z,99272.89
2023-03-26T11:34:42.570Z,99262.83
2023-03-26T11:37:55.007Z,99258.07
2023-03-26T11:40:50.954Z,99261.70
2023-03-26T11:43:37.943Z,99255.34
2023-03-26T11:46:14.635Z,99251.66
2023-03-26T11:49:09.100Z,99252.63
2023-03-26T11:51:39.833Z,99259.35
2023-03-26T11:54:12.115Z,99257.86
2023-03-26T11:57:07.301Z,99251.66
2023-03-26T11:59:57.599Z,99246.45
2023-03-26T12:02:39.017Z,99250.80
2023-03-26T12:05:24.916Z,99249.56
2023-03-26T12:07:57.091Z,99255.36
2023-03-26T12:10:32.462Z,99257.28
2023-03-26T12:13:23.257Z,99270.36
2023-03-26T12:15:51.317Z,99293.36
2023-03-26T12:18:27.934Z,99288.66
2023-03-26T12:21:08.360Z,99295.90
2023-03-26T12:23:59.873Z,99297.23
2023-03-26T12:26:44.892Z,99289.98
2023-03-26T12:29:18.886Z,99287.79
2023-03-26T12:32:04.048Z,99283.34
2023-03-26T12:34:37.386Z,99279.68
2023-03-26T12:37:28.029Z,99276.91
2023-03-26T12:40:25.813Z,99270.42
2023-03-26T12:44:54.242Z,99263.95
2023-03-26T12:47:15.117Z,99258.65
2023-03-26T12:48:58.086Z,99255.74
2023-03-26T12:51:59.958Z,99246.40
2023-03-26T12:54:59.927Z,99239.07
2023-03-26T12:58:13.807Z,99230.78
2023-03-26T13:01:07.355Z,99221.20
2023-03-26T13:03:38.798Z,99214.58
2023-03-26T13:06:23.108Z,99215.98
2023-03-26T13:09:13.293Z,99217.83
2023-03-26T13:11:50.760Z,99214.32
2023-03-26T13:14:44.625Z,99210.95
2023-03-26T13:17:29.269Z,99216.69
2023-03-26T13:20:12.445Z,99213.04
2023-03-26T13:23:05.933Z,99214.23
2023-03-26T13:25:59.498Z,99203.25
2023-03-26T13:28:53.575Z,99208.51
2023-03-26T13:31:39.904Z,99212.04
2023-03-26T13:34:24.134Z,99214.77
2023-03-26T13:37:20.488Z,99215.20
2023-03-26T13:40:01.843Z,99215.19
2023-03-26T13:43:01.001Z,99214.08
2023-03-26T13:46:15.432Z,99215.61
2023-03-26T13:48:57.716Z,99217.43
2023-03-26T13:51:47.545Z,99219.05
2023-03-26T13:54:30.653Z,99216.91
2023-03-26T13:57:21.498Z,99213.65
2023-03-26T14:00:21.789Z,99213.45
2023-03-26T14:03:00.774Z,99214.88
2023-03-26T14:05:39.315Z,99209.99
2023-03-26T14:08:32.843Z,99211.23
2023-03-26T14:11:48.365Z,99209.96
2023-03-26T14:14:31.465Z,99213.29
2023-03-26T14:17:04.567Z,99212.34
2023-03-26T14:20:20.946Z,99209.30
2023-03-26T14:23:01.987Z,99213.27
2023-03-26T14:25:55.925Z,99213.68
2023-03-26T14:28:58.426Z,99213.65
2023-03-26T14:31:59.177Z,99218.75
2023-03-26T14:34:58.436Z,99217.59
2023-03-26T14:37:57.405Z,99218.60
2023-03-26T14:41:03.192Z,99219.63
2023-03-26T14:44:04.981Z,99221.31
2023-03-26T14:47:15.861Z,99223.52
2023-03-26T14:50:15.719Z,99221.48
2023-03-26T14:52:52.701Z,99221.34
2023-03-26T14:55:56.514Z,99218.12
2023-03-26T14:59:18.840Z,99219.60
2023-03-26T15:02:36.239Z,99222.45
2023-03-26T15:05:54.936Z,99223.19
2023-03-26T15:09:15.490Z,99223.91
2023-03-26T15:12:12.535Z,99224.27
2023-03-26T15:15:38.438Z,99232.09
2023-03-26T15:18:43.098Z,99228.08
2023-03-26T15:21:57.138Z,99228.55
2023-03-26T15:25:04.122Z,99231.91
2023-03-26T15:27:57.663Z,99230.86
2023-03-26T15:31:18.858Z,99228.32
2023-03-26T15:34:13.272Z,99228.67
2023-03-26T15:37:37.781Z,99225.61
2023-03-26T15:40:51.480Z,99222.02
2023-03-26T15:43:23.063Z,99218.31
2023-03-26T15:45:57.314Z,99219.42
2023-03-26T15:48:52.801Z,99217.03
2023-03-26T15:51:46.276Z,99216.14
2023-03-26T15:54:22.659Z,99216.85
2023-03-26T15:57:21.908Z,99219.27
2023-03-26T16:00:25.100Z,99219.52
2023-03-26T16:03:31.088Z,99214.59
2023-03-26T16:06:06.084Z,99217.52
2023-03-26T16:09:04.850Z,99215.84
2023-03-26T16:12:03.276Z,99219.10
2023-03-26T16:15:14.695Z,99217.40
2023-03-26T16:18:05.115Z,99213.93
2023-03-26T16:20:43.778Z,99214.55
2023-03-26T16:23:34.377Z,99205.66
2023-03-26T16:26:19.556Z,99197.68
2023-03-26T16:28:48.897Z,99194.62
2023-03-26T16:31:35.131Z,99199.20
2023-03-26T16:34:26.264Z,99204.20
2023-03-26T16:36:54.890Z,99203.23
2023-03-26T16:39:24.296Z,99206.81
2023-03-26T16:42:06.254Z,99207.42
2023-03-26T16:44:44.941Z,99201.14
2023-03-26T16:47:36.671Z,99206.09
2023-03-26T16:50:41.719Z,99205.00
2023-03-26T16:53:47.695Z,99200.39
2023-03-26T16:56:35.014Z,99199.53
2023-03-26T17:00:04.608Z,99201.65
2023-03-26T17:02:55.196Z,99198.70
2023-03-26T17:06:03.233Z,99195.60
2023-03-26T17:09:01.225Z,99196.66
2023-03-26T17:12:07.974Z,99197.64
2023-03-26T17:15:06.353Z,99201.07
2023-03-26T17:18:22.672Z,99205.52
2023-03-26T17:21:09.306Z,99204.30
2023-03-26T17:24:05.657Z,99207.23
2023-03-26T17:27:03.128Z,99208.29
2023-03-26T17:30:21.192Z,99206.61
2023-03-26T17:33:13.348Z,99207.11
2023-03-26T17:35:47.942Z,99204.70
2023-03-26T17:38:15.984Z,99207.78
2023-03-26T17:40:58.441Z,99209.19
2023-03-26T17:43:45.446Z,99211.87
2023-03-26T17:46:34.587Z,99207.04
2023-03-26T17:49:31.354Z,99209.65
2023-03-26T17:52:05.766Z,99211.63
2023-03-26T17:54:44.176Z,99214.01
2023-03-26T17:57:20.404Z,99213.10
2023-03-26T17:59:53.015Z,99210.11
2023-03-26T18:02:33.182Z,99204.23
2023-03-26T18:05:04.367Z,99211.02
2023-03-26T18:08:08.151Z,99215.66
2023-03-26T18:11:08.242Z,99221.55
2023-03-26T18:14:33.812Z,99223.15
2023-03-26T18:17:02.690Z,99226.11
2023-03-26T18:19:49.950Z,99222.54
2023-03-26T18:22:30.578Z,99227.49
2023-03-26T18:25:01.544Z,99227.92
2023-03-26T18:27:38.962Z,99226.92
2023-03-26T18:30:20.903Z,99223.13
2023-03-26T18:33:03.069Z,99227.49
2023-03-26T18:35:44.152Z,99232.15
2023-03-26T18:38:35.974Z,99228.28
2023-03-26T18:41:16.934Z,99228.33
2023-03-26T18:43:44.948Z,99229.92
2023-03-26T18:46:14.598Z,99228.83
2023-03-26T18:48:43.488Z,99225.16
2023-03-26T18:51:12.103Z,99225.11
2023-03-26T18:54:01.173Z,99223.30
2023-03-26T18:56:51.092Z,99222.98
2023-03-26T18:59:29.035Z,99225.05
2023-03-26T19:01:58.756Z,99220.80
2023-03-26T19:04:31.652Z,99216.77
2023-03-26T19:07:01.574Z,99216.39
2023-03-26T19:09:32.505Z,99219.59
2023-03-26T19:12:18.353Z,99219.56
2023-03-26T19:15:09.125Z,99217.65
2023-03-26T19:17:56.587Z,99220.91
2023-03-26T19:20:29.678Z,99220.45
2023-03-26T19:22:58.187Z,99218.45
2023-03-26T19:25:33.512Z,99216.70
2023-03-26T19:28:01.748Z,99213.04
2023-03-26T19:30:39.236Z,99216.35
2023-03-26T19:33:20.911Z,99215.48
2023-03-26T19:36:03.271Z,99210.95
2023-03-26T19:39:01.423Z,99208.66
2023-03-26T19:41:36.297Z,99208.48
2023-03-26T19:44:28.587Z,99204.13
2023-03-26T19:47:18.822Z,99200.27
2023-03-26T19:50:03.823Z,99202.63
2023-03-26T19:52:39.333Z,99198.70
2023-03-26T19:55:22.433Z,99201.45
2023-03-26T19:57:51.598Z,99202.10
2023-03-26T20:00:19.881Z,99206.35
2023-03-26T20:02:49.387Z,99207.02
2023-03-26T20:05:28.823Z,99207.57
2023-03-26T20:08:00.713Z,99203.83
2023-03-26T20:10:28.848Z,99205.66
2023-03-26T20:12:58.240Z,99201.80
2023-03-26T20:15:32.282Z,99203.65
2023-03-26T20:18:00.750Z,99198.36
2023-03-26T20:20:28.743Z,99196.42
2023-03-26T20:22:57.087Z,99193.66
2023-03-26T20:25:46.268Z,99193.65
2023-03-26T20:28:14.129Z,99196.23
2023-03-26T20:30:42.191Z,99194.55
2023-03-26T20:33:25.485Z,99194.69
2023-03-26T20:35:55.868Z,99194.67
2023-03-26T20:38:38.986Z,99192.27
2023-03-26T20:41:16.587Z,99190.16
2023-03-26T20:43:44.453Z,99190.04
2023-03-26T20:46:22.392Z,99193.65
2023-03-26T20:48:51.736Z,99191.48
2023-03-26T20:51:19.849Z,99196.30
2023-03-26T20:53:48.142Z,99194.73
2023-03-26T20:56:19.901Z,99197.96
2023-03-26T20:59:09.726Z,99193.67
2023-03-26T21:01:39.170Z,99196.27
2023-03-26T21:04:08.986Z,99197.27
2023-03-26T21:06:36.998Z,99200.16
2023-03-26T21:09:05.834Z,99200.88
2023-03-26T21:12:00.327Z,99201.07
2023-03-26T21:14:40.932Z,99202.65
2023-03-26T21:17:19.364Z,99208.06
2023-03-26T21:19:49.152Z,99213.13
2023-03-26T21:22:49.716Z,99216.81
2023-03-26T21:26:01.287Z,99216.16
2023-03-26T21:28:50.763Z,99217.69
2023-03-26T21:31:23.096Z,99217.76
2023-03-26T21:33:51.767Z,99213.77
2023-03-26T21:36:20.312Z,99216.16
2023-03-26T21:38:50.422Z,99216.16
2023-03-26T21:41:24.109Z,99213.02
2023-03-26T21:43:51.930Z,99214.24
2023-03-26T21:46:20.487Z,99214.94
2023-03-26T21:48:48.829Z,99215.73
2023-03-26T21:51:19.228Z,99212.77
2023-03-26T21:53:48.819Z,99211.79
2023-03-26T21:56:50.353Z,99210.09
2023-03-26T21:59:56.589Z,99210.95
2023-03-26T22:02:59.392Z,99211.90
2023-03-26T22:05:44.971Z,99216.09
2023-03-26T22:08:29.278Z,99215.98
2023-03-26T22:10:57.740Z,99217.39
2023-03-26T22:13:26.076Z,99218.90
2023-03-26T22:15:54.427Z,99218.44
2023-03-26T22:18:24.440Z,99217.45
2023-03-26T22:20:53.068Z,99223.65
2023-03-26T22:23:21.134Z,99226.06
2023-03-26T22:25:49.452Z,99222.03
2023-03-26T22:28:18.202Z,99229.00
2023-03-26T22:30:46.542Z,99230.27
2023-03-26T22:33:14.467Z,99232.77
2023-03-26T22:35:42.979Z,99238.09
2023-03-26T22:38:11.860Z,99237.00
2023-03-26T22:40:39.678Z,99241.91
2023-03-26T22:43:07.490Z,99242.55
2023-03-26T22:45:37.524Z,99247.47
2023-03-26T22:48:05.709Z,99253.55
2023-03-26T22:50:33.677Z,99246.23
2023-03-26T22:53:01.552Z,99248.66
2023-03-26T22:55:30.031Z,99249.67
2023-03-26T22:57:58.307Z,99248.00
2023-03-26T23:00:26.568Z,99246.58
2023-03-26T23:03:00.416Z,99245.98
2023-03-26T23:05:29.293Z,99241.23
2023-03-26T23:07:57.167Z,99240.48
2023-03-26T23:10:25.017Z,99238.15
2023-03-26T23:12:52.805Z,99238.92
2023-03-26T23:15:20.644Z,99238.77
2023-03-26T23:17:54.920Z,99240.46
2023-03-26T23:20:23.339Z,99239.28
2023-03-26T23:22:51.255Z,99242.47
2023-03-26T23:25:21.530Z,99244.70
2023-03-26T23:27:50.587Z,99259.03
2023-03-26T23:30:19.025Z,99268.64
2023-03-26T23:32:46.985Z,99274.20
2023-03-26T23:35:14.875Z,99276.23
2023-03-26T23:37:42.707Z,99280.06
2023-03-26T23:40:12.315Z,99285.76
2023-03-26T23:42:40.112Z,99290.20
2023-03-26T23:45:08.540Z,99288.59
2023-03-26T23:47:37.289Z,99295.13
2023-03-26T23:50:06.293Z,99297.42
2023-03-26T23:52:34.081Z,99300.23
2023-03-26T23:55:01.961Z,99302.39
2023-03-26T23:57:30.560Z,99306.21
2023-03-26T23:59:58.483Z,99316.13
